»·PEaware :: N427LJ KLAX-KSNA

N427LJ :: KLAX-KSNA

FLIGHT INFORMATION

Flight Status: Arrived
Operator: Privately registered:
United States
More flights under this callsign
Pilot: Anonymous 27948 (27948)
Aircraft: CESSNA 172 SKYHAWK
(C172)
More flights by this aircraft type
Origin: KLAX Los Angeles Intl
United States
Destination: KSNA John Wayne-Orange Co
United States
More flights between these airports :: More routes between these airports
Route: +SLI8 SLI
File this flight plan on PilotEdge
Remarks: I-6 RATING
Altitude:
(Current/Filed)
4,000ft
Speed:
(Current/Filed)
120kts
Departed: 29-Aug-20 11:27 AM
Arrived: 29-Aug-20 12:10 PM
Distance/Time
Traveled:
31nm/0:43
Distance/Time
To Go:
Arrived

Flight Plot

Page will automatically refresh every two minutes.

Flight plan parsing failed; only flown route is shown


Map Options




Map Legend


Flown Route
Filed Route
Departure Airport
Arrival Airport
Navaid (VOR, NDB)
Fix

Horizontal Profiles

Position Reports

Time Latitude Longitude Heading Altitude Ground
Speed
29-Aug-20 11:08 33.934138 -118.394988 176 105ft 0kts
29-Aug-20 11:09 33.934138 -118.394988 176 105ft 0kts
29-Aug-20 11:10 33.934138 -118.394988 176 105ft 0kts
29-Aug-20 11:11 33.934138 -118.394988 176 105ft 0kts
29-Aug-20 11:12 33.934138 -118.394988 176 105ft 0kts
29-Aug-20 11:13 33.934138 -118.394988 176 105ft 0kts
29-Aug-20 11:14 33.934138 -118.394988 176 105ft 0kts
29-Aug-20 11:15 33.934138 -118.394988 176 105ft 0kts
29-Aug-20 11:16 33.934138 -118.394988 176 105ft 0kts
29-Aug-20 11:17 33.934138 -118.394988 176 105ft 0kts
29-Aug-20 11:18 33.934138 -118.394988 176 105ft 0kts
29-Aug-20 11:19 33.934138 -118.394988 176 105ft 0kts
29-Aug-20 11:20 33.934178 -118.394297 65 104ft 4kts
29-Aug-20 11:21 33.935134 -118.392548 81 102ft 12kts
29-Aug-20 11:22 33.935638 -118.387484 85 99ft 15kts
29-Aug-20 11:23 33.936036 -118.383664 85 97ft 9kts
29-Aug-20 11:24 33.936094 -118.383222 63 96ft 0kts
29-Aug-20 11:25 33.936094 -118.383222 63 96ft 0kts
29-Aug-20 11:26 33.937142 -118.384825 263 99ft 47kts
29-Aug-20 11:27 33.929677 -118.407389 212 1015ft 80kts
29-Aug-20 11:28 33.921934 -118.423667 290 1907ft 82kts
29-Aug-20 11:29 33.921940 -118.452589 263 2818ft 90kts
29-Aug-20 11:30 33.918649 -118.485529 263 3534ft 101kts
29-Aug-20 11:31 33.898570 -118.498556 162 4010ft 115kts
29-Aug-20 11:32 33.867983 -118.486573 162 4009ft 115kts
29-Aug-20 11:33 33.839989 -118.470206 108 4006ft 115kts
29-Aug-20 11:34 33.838612 -118.431669 94 4009ft 115kts
29-Aug-20 11:35 33.834751 -118.393181 99 4009ft 115kts
29-Aug-20 11:36 33.829204 -118.354951 100 4009ft 115kts
29-Aug-20 11:37 33.823413 -118.316740 100 4009ft 115kts
29-Aug-20 11:38 33.817615 -118.278630 100 4009ft 115kts
29-Aug-20 11:39 33.811810 -118.240543 100 4009ft 115kts
29-Aug-20 11:40 33.805983 -118.202411 100 4009ft 115kts
29-Aug-20 11:41 33.800145 -118.164288 100 4009ft 115kts
29-Aug-20 11:42 33.794284 -118.126102 100 4009ft 115kts
29-Aug-20 11:43 33.788434 -118.088062 100 4009ft 115kts
29-Aug-20 11:44 33.786604 -118.050004 71 4009ft 115kts
29-Aug-20 11:45 33.799582 -118.014497 64 4009ft 115kts
29-Aug-20 11:46 33.813611 -117.979514 64 4009ft 116kts
29-Aug-20 11:47 33.827681 -117.944518 64 4009ft 116kts
29-Aug-20 11:48 33.841679 -117.909672 64 4009ft 116kts
29-Aug-20 11:49 33.855732 -117.874652 64 4009ft 116kts
29-Aug-20 11:50 33.869737 -117.839716 64 4009ft 116kts
29-Aug-20 11:51 33.883744 -117.804739 64 4009ft 116kts
29-Aug-20 11:52 33.897719 -117.769806 64 4009ft 116kts
29-Aug-20 11:54 33.911701 -117.734819 64 4009ft 116kts
29-Aug-20 11:55 33.931535 -117.706588 27 3792ft 116kts
29-Aug-20 11:56 33.960438 -117.688253 27 3509ft 115kts
29-Aug-20 11:57 33.979439 -117.701187 243 3506ft 110kts
29-Aug-20 11:58 33.950871 -117.710364 184 3509ft 112kts
29-Aug-20 11:59 33.919776 -117.713426 190 3507ft 112kts
29-Aug-20 12:00 33.893145 -117.730476 208 3408ft 103kts
29-Aug-20 12:01 33.867968 -117.746651 207 3409ft 102kts
29-Aug-20 12:02 33.843086 -117.762586 207 3208ft 101kts
29-Aug-20 12:03 33.818640 -117.778098 207 2809ft 96kts
29-Aug-20 12:04 33.794696 -117.793300 207 2683ft 103kts
29-Aug-20 12:05 33.769694 -117.809220 207 2060ft 97kts
29-Aug-20 12:06 33.746078 -117.824213 207 1516ft 90kts
29-Aug-20 12:07 33.722898 -117.838924 207 998ft 97kts
29-Aug-20 12:08 33.699671 -117.853593 206 411ft 91kts
29-Aug-20 12:09 33.679091 -117.866678 207 64ft 67kts
29-Aug-20 12:09 33.675948 -117.869744 297 60ft 0kts
29-Aug-20 12:10 33.675017 -117.870744 206 60ft 10kts

Navigation Log

Ident Type
Flight plan parsing failed, navigation log unavailable